Time;durP1;ratioP1;P1;durP2;ratioP2;P2;SDS_P1;SDS_P2;PMS_P1;PMS_P2;Temp;Humidity;BMP_temperature;BMP_pressure;BME280_temperature;BME280_humidity;BME280_pressure;Samples;Min_cycle;Max_cycle;Signal;HPM_P1;HPM_P2
2023/08/06 00:00:22;;;;;;;3.63;2.13;;;;;;;;;;5054319;28;20050;-67
2023/08/06 00:02:48;;;;;;;4.20;2.03;;;;;;;;;;5072433;28;20084;-67
2023/08/06 00:05:17;;;;;;;4.00;2.15;;;;;;;;;;5071652;28;20063;-67
2023/08/06 00:07:44;;;;;;;3.53;1.80;;;;;;;;;;5072382;28;20036;-67
2023/08/06 00:10:10;;;;;;;3.45;1.95;;;;;;;;;;5072237;28;20112;-67
2023/08/06 00:12:36;;;;;;;4.50;2.22;;;;;;;;;;5071774;28;20044;-67
2023/08/06 00:15:02;;;;;;;4.25;1.90;;;;;;;;;;5053711;28;20028;-66
2023/08/06 00:17:28;;;;;;;4.30;1.83;;;;;;;;;;5071826;28;20040;-66
2023/08/06 00:19:53;;;;;;;3.53;1.80;;;;;;;;;;5071840;28;20021;-67
2023/08/06 00:22:19;;;;;;;4.53;1.70;;;;;;;;;;5072037;28;20515;-67
2023/08/06 00:24:44;;;;;;;4.10;1.80;;;;;;;;;;5053859;28;20016;-67
2023/08/06 00:27:10;;;;;;;3.28;1.77;;;;;;;;;;5054015;28;20046;-67
2023/08/06 00:29:36;;;;;;;3.67;1.77;;;;;;;;;;5053961;28;20443;-67
2023/08/06 00:32:02;;;;;;;4.53;2.05;;;;;;;;;;5053657;28;20043;-67
2023/08/06 00:34:27;;;;;;;3.88;1.70;;;;;;;;;;5053200;28;20572;-67
2023/08/06 00:36:54;;;;;;;4.32;2.17;;;;;;;;;;5053497;28;20391;-67
2023/08/06 00:39:19;;;;;;;4.20;1.80;;;;;;;;;;5053559;28;20498;-67
2023/08/06 00:41:45;;;;;;;8.38;2.35;;;;;;;;;;5071645;28;20107;-67
2023/08/06 00:44:11;;;;;;;7.03;2.50;;;;;;;;;;5053329;28;20027;-67
2023/08/06 00:46:39;;;;;;;3.80;2.40;;;;;;;;;;5053491;28;20033;-67
2023/08/06 00:49:05;;;;;;;2.63;1.73;;;;;;;;;;5053484;28;20176;-66
2023/08/06 00:51:32;;;;;;;3.55;1.80;;;;;;;;;;5054477;28;20094;-66
2023/08/06 00:53:57;;;;;;;4.57;2.10;;;;;;;;;;5071265;28;20086;-66
2023/08/06 00:56:24;;;;;;;4.30;1.80;;;;;;;;;;5071610;28;20494;-66
2023/08/06 00:58:50;;;;;;;2.33;1.60;;;;;;;;;;5053614;28;20039;-66
2023/08/06 01:01:15;;;;;;;5.03;2.00;;;;;;;;;;5071331;28;20036;-66
2023/08/06 01:03:41;;;;;;;3.80;2.00;;;;;;;;;;5071519;28;20386;-67
2023/08/06 01:06:07;;;;;;;3.67;1.90;;;;;;;;;;5053255;28;20037;-66
2023/08/06 01:09:01;;;;;;;4.63;2.10;;;;;;;;;;5053414;28;20074;-67
2023/08/06 01:11:41;;;;;;;4.85;2.20;;;;;;;;;;5072034;28;20056;-67
2023/08/06 01:14:27;;;;;;;3.97;1.90;;;;;;;;;;5053657;28;20032;-67
2023/08/06 01:16:54;;;;;;;4.63;1.88;;;;;;;;;;5054154;28;20546;-67
2023/08/06 01:19:21;;;;;;;5.55;2.10;;;;;;;;;;5037631;28;20032;-68
2023/08/06 01:21:47;;;;;;;3.45;1.90;;;;;;;;;;5054478;28;20032;-67
2023/08/06 01:24:13;;;;;;;3.55;2.08;;;;;;;;;;5038066;28;20112;-67
2023/08/06 01:26:51;;;;;;;3.50;1.75;;;;;;;;;;5036749;28;20124;-66
2023/08/06 01:29:48;;;;;;;5.22;2.03;;;;;;;;;;5053950;28;20036;-67
2023/08/06 01:32:15;;;;;;;6.35;2.03;;;;;;;;;;5056481;28;20124;-66
2023/08/06 01:34:44;;;;;;;4.28;1.75;;;;;;;;;;5073891;28;20028;-67
2023/08/06 01:37:11;;;;;;;4.07;1.75;;;;;;;;;;5056295;28;20119;-67
2023/08/06 01:39:37;;;;;;;2.58;1.50;;;;;;;;;;5037090;28;20032;-66
2023/08/06 01:42:03;;;;;;;2.95;1.75;;;;;;;;;;5036379;28;20044;-66
2023/08/06 01:44:29;;;;;;;4.50;1.60;;;;;;;;;;5071711;28;20024;-68
2023/08/06 01:46:55;;;;;;;3.03;1.63;;;;;;;;;;5073875;28;20043;-67
2023/08/06 01:49:20;;;;;;;3.85;1.80;;;;;;;;;;5073866;28;20073;-67
2023/08/06 01:51:46;;;;;;;3.53;1.95;;;;;;;;;;5073530;28;20108;-66
2023/08/06 01:54:12;;;;;;;2.65;1.55;;;;;;;;;;5053985;28;20107;-67
2023/08/06 01:56:37;;;;;;;3.70;2.17;;;;;;;;;;5054707;28;20163;-67
2023/08/06 01:59:03;;;;;;;2.92;1.40;;;;;;;;;;5036459;28;20025;-67
2023/08/06 02:01:29;;;;;;;3.22;1.80;;;;;;;;;;5034804;28;20037;-68
2023/08/06 02:03:54;;;;;;;3.47;2.08;;;;;;;;;;5054639;28;20087;-66
2023/08/06 02:06:20;;;;;;;2.15;1.50;;;;;;;;;;5037008;28;20116;-66
2023/08/06 02:08:46;;;;;;;3.40;1.65;;;;;;;;;;5075893;28;20024;-67
2023/08/06 02:11:14;;;;;;;4.65;2.00;;;;;;;;;;5075451;28;20427;-67
2023/08/06 02:13:40;;;;;;;3.25;1.75;;;;;;;;;;5073817;28;20060;-66
2023/08/06 02:16:09;;;;;;;4.38;1.60;;;;;;;;;;5057035;28;20123;-66
2023/08/06 02:18:35;;;;;;;2.08;1.50;;;;;;;;;;5073689;28;20020;-66
2023/08/06 02:21:01;;;;;;;4.22;1.80;;;;;;;;;;5073604;28;20509;-66
2023/08/06 02:23:28;;;;;;;3.10;1.75;;;;;;;;;;5073728;28;20086;-67
2023/08/06 02:26:12;;;;;;;6.28;1.90;;;;;;;;;;5055158;28;20482;-66
2023/08/06 02:28:37;;;;;;;7.15;1.77;;;;;;;;;;5073644;28;20039;-67
2023/08/06 02:31:03;;;;;;;3.38;1.70;;;;;;;;;;5055419;28;20028;-67
2023/08/06 02:33:29;;;;;;;3.67;1.85;;;;;;;;;;5055439;28;20028;-67
2023/08/06 02:36:03;;;;;;;7.05;1.80;;;;;;;;;;5064181;28;20033;-67
2023/08/06 02:38:29;;;;;;;3.78;1.65;;;;;;;;;;5071915;28;20024;-67
2023/08/06 02:40:56;;;;;;;4.95;1.70;;;;;;;;;;5083282;28;20135;-67
2023/08/06 02:43:22;;;;;;;4.68;2.10;;;;;;;;;;5055007;28;20086;-67
2023/08/06 02:45:48;;;;;;;5.03;1.88;;;;;;;;;;5054376;28;20103;-67
2023/08/06 02:48:14;;;;;;;5.10;2.00;;;;;;;;;;5055302;28;20029;-67
2023/08/06 02:50:41;;;;;;;4.80;2.13;;;;;;;;;;5054867;28;20069;-67
2023/08/06 02:53:08;;;;;;;6.35;2.03;;;;;;;;;;5054896;28;20060;-67
2023/08/06 02:55:35;;;;;;;2.33;1.80;;;;;;;;;;5054569;28;20016;-67
2023/08/06 02:58:03;;;;;;;3.40;1.70;;;;;;;;;;5054878;28;20028;-67
2023/08/06 03:00:33;;;;;;;3.72;1.73;;;;;;;;;;5054791;28;20048;-67
2023/08/06 03:02:59;;;;;;;2.85;1.90;;;;;;;;;;5054855;28;20505;-67
2023/08/06 03:05:33;;;;;;;5.55;1.80;;;;;;;;;;5054341;28;20025;-67
2023/08/06 03:07:59;;;;;;;6.10;2.35;;;;;;;;;;5055204;28;20041;-67
2023/08/06 03:10:27;;;;;;;4.38;1.92;;;;;;;;;;5053222;28;20500;-67
2023/08/06 03:12:56;;;;;;;3.33;1.88;;;;;;;;;;5087876;28;20516;-67
2023/08/06 03:15:22;;;;;;;3.72;1.85;;;;;;;;;;5051277;28;20024;-66
2023/08/06 03:17:49;;;;;;;6.68;2.25;;;;;;;;;;5045327;28;20021;-66
2023/08/06 03:20:18;;;;;;;4.13;1.75;;;;;;;;;;5032535;28;20025;-66
2023/08/06 03:22:44;;;;;;;5.28;2.20;;;;;;;;;;5048969;28;20111;-67
2023/08/06 03:25:10;;;;;;;4.82;2.50;;;;;;;;;;5051415;28;20041;-66
2023/08/06 03:27:36;;;;;;;5.85;2.28;;;;;;;;;;5046190;28;20120;-67
2023/08/06 03:30:03;;;;;;;7.85;1.80;;;;;;;;;;5032297;28;20115;-66
2023/08/06 03:32:29;;;;;;;3.33;1.67;;;;;;;;;;5070557;28;20441;-67
2023/08/06 03:34:55;;;;;;;5.40;1.90;;;;;;;;;;5071530;28;20038;-66
2023/08/06 03:37:22;;;;;;;4.97;1.80;;;;;;;;;;5035922;28;20040;-67
2023/08/06 03:39:50;;;;;;;3.80;1.63;;;;;;;;;;5031762;28;20108;-67
2023/08/06 03:42:16;;;;;;;3.17;1.77;;;;;;;;;;5031714;28;20128;-67
2023/08/06 03:44:42;;;;;;;6.38;2.00;;;;;;;;;;5031536;28;20473;-67
2023/08/06 03:47:09;;;;;;;4.68;2.00;;;;;;;;;;5047164;28;20044;-67
2023/08/06 03:49:35;;;;;;;3.70;1.80;;;;;;;;;;5069677;28;20024;-67
2023/08/06 03:52:03;;;;;;;2.70;1.60;;;;;;;;;;5051587;28;20067;-66
2023/08/06 03:54:29;;;;;;;2.92;1.70;;;;;;;;;;5038665;28;20048;-67
2023/08/06 03:56:55;;;;;;;4.43;1.90;;;;;;;;;;5057653;28;20040;-67
2023/08/06 03:59:21;;;;;;;4.20;2.17;;;;;;;;;;5071872;28;20024;-67
2023/08/06 04:01:47;;;;;;;4.90;2.20;;;;;;;;;;5047894;28;20402;-67
2023/08/06 04:04:13;;;;;;;5.25;1.67;;;;;;;;;;5031347;28;20046;-66
2023/08/06 04:06:39;;;;;;;4.65;1.80;;;;;;;;;;5070282;28;20036;-67
2023/08/06 04:09:04;;;;;;;4.57;1.73;;;;;;;;;;5071365;28;20024;-68
2023/08/06 04:11:30;;;;;;;3.25;1.80;;;;;;;;;;5054615;28;20029;-67
2023/08/06 04:13:56;;;;;;;5.68;2.00;;;;;;;;;;5032483;28;20072;-68
2023/08/06 04:16:23;;;;;;;3.97;1.70;;;;;;;;;;5051905;28;20204;-68
2023/08/06 04:18:49;;;;;;;3.55;1.60;;;;;;;;;;5017745;28;20028;-67
2023/08/06 04:21:15;;;;;;;3.85;1.70;;;;;;;;;;5051968;28;20028;-67
2023/08/06 04:23:40;;;;;;;4.75;1.80;;;;;;;;;;5033956;28;20033;-68
2023/08/06 04:26:07;;;;;;;2.97;1.42;;;;;;;;;;5040269;28;20353;-67
2023/08/06 04:28:35;;;;;;;5.47;1.67;;;;;;;;;;5053635;28;20054;-68
2023/08/06 04:31:00;;;;;;;3.08;1.98;;;;;;;;;;5087149;28;20059;-68
2023/08/06 04:33:27;;;;;;;2.35;1.42;;;;;;;;;;5078527;28;20111;-68
2023/08/06 04:35:58;;;;;;;2.30;1.42;;;;;;;;;;5083574;28;20071;-68
2023/08/06 04:38:26;;;;;;;5.68;1.75;;;;;;;;;;5053617;28;20024;-68
2023/08/06 04:40:53;;;;;;;7.07;1.73;;;;;;;;;;5053730;28;20020;-67
2023/08/06 04:43:20;;;;;;;2.50;1.40;;;;;;;;;;5053321;28;20035;-68
2023/08/06 04:45:51;;;;;;;3.28;1.52;;;;;;;;;;5046519;28;20032;-68
2023/08/06 04:48:17;;;;;;;4.40;1.40;;;;;;;;;;5069904;28;20434;-68
2023/08/06 04:50:47;;;;;;;2.60;1.65;;;;;;;;;;5071359;28;20036;-68
2023/08/06 04:53:13;;;;;;;2.72;1.50;;;;;;;;;;5071220;28;20073;-68
2023/08/06 04:55:38;;;;;;;4.30;1.60;;;;;;;;;;5071526;28;20103;-69
2023/08/06 04:58:05;;;;;;;2.83;1.40;;;;;;;;;;5071983;28;20501;-68
2023/08/06 05:00:30;;;;;;;7.57;1.50;;;;;;;;;;5075646;28;20138;-69
2023/08/06 05:02:56;;;;;;;4.25;1.40;;;;;;;;;;5075350;28;20107;-69
2023/08/06 05:05:22;;;;;;;1.70;1.25;;;;;;;;;;5074812;28;20386;-69
2023/08/06 05:07:50;;;;;;;1.77;1.33;;;;;;;;;;5075033;28;20521;-68
2023/08/06 05:10:16;;;;;;;2.60;1.20;;;;;;;;;;5075263;28;20035;-68
2023/08/06 05:12:42;;;;;;;1.83;1.20;;;;;;;;;;5075367;28;20374;-68
2023/08/06 05:15:08;;;;;;;2.97;1.33;;;;;;;;;;5075210;28;20103;-68
2023/08/06 05:17:34;;;;;;;2.65;1.40;;;;;;;;;;5075115;28;20478;-69
2023/08/06 05:19:59;;;;;;;2.70;1.15;;;;;;;;;;5075237;28;20086;-69
2023/08/06 05:22:25;;;;;;;3.53;1.40;;;;;;;;;;5074725;28;20540;-69
2023/08/06 05:24:51;;;;;;;5.00;1.30;;;;;;;;;;5075058;28;20119;-69
2023/08/06 05:27:18;;;;;;;5.93;1.40;;;;;;;;;;5074784;28;20028;-69
2023/08/06 05:29:45;;;;;;;4.85;1.92;;;;;;;;;;5074848;28;20437;-69
2023/08/06 05:32:10;;;;;;;6.43;1.98;;;;;;;;;;5074467;28;20079;-68
2023/08/06 05:34:36;;;;;;;4.32;1.38;;;;;;;;;;5074512;28;20063;-68
2023/08/06 05:37:03;;;;;;;7.90;1.80;;;;;;;;;;5074885;28;20028;-68
2023/08/06 05:39:29;;;;;;;3.55;1.70;;;;;;;;;;5074317;28;20154;-68
2023/08/06 05:41:55;;;;;;;2.47;1.50;;;;;;;;;;5074702;28;20099;-68
2023/08/06 05:44:21;;;;;;;3.28;1.45;;;;;;;;;;5074455;28;20396;-67
2023/08/06 05:46:47;;;;;;;2.80;1.40;;;;;;;;;;5074265;28;20032;-68
2023/08/06 05:49:13;;;;;;;2.83;1.20;;;;;;;;;;5074258;28;20028;-69
2023/08/06 05:51:39;;;;;;;4.45;1.63;;;;;;;;;;5074539;28;20162;-68
2023/08/06 05:54:05;;;;;;;3.90;1.13;;;;;;;;;;5066787;28;20107;-68
2023/08/06 05:56:31;;;;;;;2.60;1.30;;;;;;;;;;5074251;28;20025;-69
2023/08/06 05:58:56;;;;;;;1.60;1.00;;;;;;;;;;5074246;28;20062;-68
2023/08/06 06:01:23;;;;;;;4.30;1.17;;;;;;;;;;5073984;28;20085;-67
2023/08/06 06:03:48;;;;;;;3.58;1.45;;;;;;;;;;5073994;28;20024;-67
2023/08/06 06:06:14;;;;;;;3.58;1.38;;;;;;;;;;5073731;28;20036;-68
2023/08/06 06:08:40;;;;;;;4.88;1.30;;;;;;;;;;5073724;28;20012;-68
2023/08/06 06:11:05;;;;;;;2.83;1.40;;;;;;;;;;5056343;28;20059;-69
2023/08/06 06:13:31;;;;;;;2.58;1.20;;;;;;;;;;5073885;28;20017;-68
2023/08/06 06:15:57;;;;;;;3.50;1.60;;;;;;;;;;5055820;28;20037;-69
2023/08/06 06:18:22;;;;;;;3.60;1.70;;;;;;;;;;5073878;28;20016;-69
2023/08/06 06:20:48;;;;;;;4.18;1.50;;;;;;;;;;5073970;28;20038;-68
2023/08/06 06:23:14;;;;;;;3.35;1.60;;;;;;;;;;5055660;28;20029;-69
2023/08/06 06:25:44;;;;;;;3.75;1.60;;;;;;;;;;5073723;28;20063;-69
2023/08/06 06:28:10;;;;;;;2.60;1.35;;;;;;;;;;5073783;28;20037;-69
2023/08/06 06:30:35;;;;;;;3.08;1.52;;;;;;;;;;5073772;28;20559;-68
2023/08/06 06:33:01;;;;;;;6.15;1.35;;;;;;;;;;5073981;28;20512;-69
2023/08/06 06:35:27;;;;;;;4.75;1.30;;;;;;;;;;5055541;28;20478;-70
2023/08/06 06:37:52;;;;;;;2.65;1.50;;;;;;;;;;5073606;28;20033;-69
2023/08/06 06:40:18;;;;;;;3.33;1.50;;;;;;;;;;5073530;28;20024;-68
2023/08/06 06:42:44;;;;;;;2.95;1.50;;;;;;;;;;5073698;28;20029;-69
2023/08/06 06:45:09;;;;;;;4.00;1.60;;;;;;;;;;5073455;28;20393;-68
2023/08/06 06:47:35;;;;;;;4.18;1.85;;;;;;;;;;5073598;28;20047;-69
2023/08/06 06:50:01;;;;;;;2.53;1.30;;;;;;;;;;5073593;28;20129;-69
2023/08/06 06:52:26;;;;;;;3.53;1.30;;;;;;;;;;5073186;28;20044;-69
2023/08/06 06:54:52;;;;;;;2.72;1.25;;;;;;;;;;5073285;28;20017;-69
2023/08/06 06:57:18;;;;;;;4.95;1.40;;;;;;;;;;5073197;28;20555;-69
2023/08/06 06:59:43;;;;;;;2.85;1.25;;;;;;;;;;5072903;28;20103;-69
2023/08/06 07:02:09;;;;;;;3.25;1.40;;;;;;;;;;5073343;28;20056;-69
2023/08/06 07:04:35;;;;;;;2.30;1.20;;;;;;;;;;5072731;28;20035;-69
2023/08/06 07:07:00;;;;;;;2.90;1.30;;;;;;;;;;5073046;28;20039;-69
2023/08/06 07:09:26;;;;;;;3.83;1.40;;;;;;;;;;5072606;28;20021;-69
2023/08/06 07:11:52;;;;;;;2.88;1.20;;;;;;;;;;5072795;28;20033;-68
2023/08/06 07:14:18;;;;;;;2.97;1.23;;;;;;;;;;5054533;28;20543;-69
2023/08/06 07:16:43;;;;;;;2.30;1.10;;;;;;;;;;5072910;28;20028;-68
2023/08/06 07:19:09;;;;;;;5.38;1.33;;;;;;;;;;5072919;28;20062;-68
2023/08/06 07:21:35;;;;;;;2.80;1.30;;;;;;;;;;5072235;28;20036;-69
2023/08/06 07:24:00;;;;;;;2.17;1.20;;;;;;;;;;5072855;28;20375;-68
2023/08/06 07:26:26;;;;;;;5.95;1.30;;;;;;;;;;5072636;28;20037;-68
2023/08/06 07:28:52;;;;;;;2.60;1.27;;;;;;;;;;5072383;28;20032;-69
2023/08/06 07:31:18;;;;;;;3.80;1.38;;;;;;;;;;5072177;28;20040;-69
2023/08/06 07:33:43;;;;;;;5.60;1.52;;;;;;;;;;5072869;28;20021;-68
2023/08/06 07:36:11;;;;;;;2.78;0.95;;;;;;;;;;5055038;28;20303;-68
2023/08/06 07:38:37;;;;;;;6.20;1.30;;;;;;;;;;5072389;28;20359;-68
2023/08/06 07:41:03;;;;;;;3.60;1.27;;;;;;;;;;5072493;28;20029;-68
2023/08/06 07:43:29;;;;;;;2.08;1.02;;;;;;;;;;5072139;28;20389;-68
2023/08/06 07:45:58;;;;;;;4.10;1.30;;;;;;;;;;5071821;28;20033;-68
2023/08/06 07:48:24;;;;;;;5.78;1.40;;;;;;;;;;5072113;28;20024;-68
2023/08/06 07:50:56;;;;;;;5.78;1.25;;;;;;;;;;5072748;28;20028;-67
2023/08/06 07:53:23;;;;;;;3.42;1.42;;;;;;;;;;5072643;28;20448;-68
2023/08/06 07:55:51;;;;;;;5.07;1.48;;;;;;;;;;5055078;28;20493;-68
2023/08/06 07:58:17;;;;;;;2.72;1.20;;;;;;;;;;5072486;28;20056;-69
2023/08/06 08:00:45;;;;;;;4.80;1.42;;;;;;;;;;5072531;28;20024;-69
2023/08/06 08:03:15;;;;;;;4.05;1.30;;;;;;;;;;5072695;28;20040;-69
2023/08/06 08:05:44;;;;;;;2.00;1.27;;;;;;;;;;5071814;28;20040;-68
2023/08/06 08:08:10;;;;;;;2.72;1.05;;;;;;;;;;5071818;28;20024;-68
2023/08/06 08:10:37;;;;;;;5.85;1.17;;;;;;;;;;5071861;28;20033;-68
2023/08/06 08:13:04;;;;;;;2.53;1.20;;;;;;;;;;5071755;28;20466;-68
2023/08/06 08:15:31;;;;;;;7.97;1.40;;;;;;;;;;5072205;28;20032;-68
2023/08/06 08:17:57;;;;;;;6.35;1.55;;;;;;;;;;5072158;28;20048;-68
2023/08/06 08:20:23;;;;;;;4.72;1.20;;;;;;;;;;5071834;28;20044;-69
2023/08/06 08:22:50;;;;;;;2.38;1.20;;;;;;;;;;5071775;28;20021;-68
2023/08/06 08:25:16;;;;;;;3.85;1.05;;;;;;;;;;5071625;28;20035;-68
2023/08/06 08:27:42;;;;;;;4.22;1.17;;;;;;;;;;5071835;28;20028;-68
2023/08/06 08:30:08;;;;;;;3.13;1.13;;;;;;;;;;5071819;28;20217;-68
2023/08/06 08:32:33;;;;;;;2.28;1.13;;;;;;;;;;5071729;28;20024;-68
2023/08/06 08:34:59;;;;;;;3.75;1.23;;;;;;;;;;5071492;28;20039;-68
2023/08/06 08:37:25;;;;;;;2.40;1.27;;;;;;;;;;5071704;28;20652;-68
2023/08/06 08:39:52;;;;;;;3.67;1.60;;;;;;;;;;5071515;28;20033;-68
2023/08/06 08:42:18;;;;;;;4.55;1.30;;;;;;;;;;5071686;28;20470;-68
2023/08/06 08:44:44;;;;;;;2.00;0.88;;;;;;;;;;5053491;28;20040;-68
2023/08/06 08:47:11;;;;;;;2.97;1.13;;;;;;;;;;5071837;28;20029;-68
2023/08/06 08:49:37;;;;;;;3.00;1.00;;;;;;;;;;5071969;28;20047;-68
2023/08/06 08:52:10;;;;;;;4.80;1.20;;;;;;;;;;5071558;28;20119;-68
2023/08/06 08:54:37;;;;;;;;;;;;;;;;;;5072256;28;20055;-68
2023/08/06 08:57:03;;;;;;;5.80;1.65;;;;;;;;;;5071655;28;19909;-68
2023/08/06 08:59:29;;;;;;;4.07;1.20;;;;;;;;;;5071563;28;20040;-68
2023/08/06 09:01:55;;;;;;;7.95;1.50;;;;;;;;;;5071809;28;20370;-68
2023/08/06 09:04:22;;;;;;;2.58;1.38;;;;;;;;;;5071333;28;20111;-68
2023/08/06 09:06:51;;;;;;;5.28;1.42;;;;;;;;;;5071258;28;20028;-68
2023/08/06 09:09:28;;;;;;;6.28;1.60;;;;;;;;;;5071294;28;20054;-68
2023/08/06 09:12:00;;;;;;;2.63;1.15;;;;;;;;;;5071300;28;20036;-68
2023/08/06 09:14:26;;;;;;;4.43;1.30;;;;;;;;;;5071307;28;20044;-69
2023/08/06 09:16:52;;;;;;;2.42;1.25;;;;;;;;;;5071092;28;20074;-68
2023/08/06 09:19:18;;;;;;;6.55;1.20;;;;;;;;;;5071132;28;20224;-68
2023/08/06 09:21:48;;;;;;;2.60;1.30;;;;;;;;;;5071345;28;20032;-67
2023/08/06 09:24:14;;;;;;;3.10;1.40;;;;;;;;;;5071177;28;20112;-67
2023/08/06 09:26:42;;;;;;;2.72;1.00;;;;;;;;;;5071159;28;20417;-68
2023/08/06 09:29:11;;;;;;;3.05;1.08;;;;;;;;;;5071215;28;20440;-70
2023/08/06 09:31:51;;;;;;;5.55;1.60;;;;;;;;;;5071142;28;20024;-69
2023/08/06 09:34:22;;;;;;;3.80;1.48;;;;;;;;;;5070827;28;20371;-68
2023/08/06 09:36:50;;;;;;;3.90;1.40;;;;;;;;;;5071231;28;20035;-68
2023/08/06 09:39:21;;;;;;;3.92;1.20;;;;;;;;;;5071114;28;20474;-68
2023/08/06 09:41:48;;;;;;;4.35;1.40;;;;;;;;;;5071067;28;20043;-69
2023/08/06 09:44:18;;;;;;;4.82;1.20;;;;;;;;;;5072342;28;20116;-67
2023/08/06 09:46:52;;;;;;;2.67;1.27;;;;;;;;;;5075997;28;20044;-68
2023/08/06 09:49:45;;;;;;;2.88;1.52;;;;;;;;;;5075211;28;20032;-68
2023/08/06 09:52:16;;;;;;;2.85;1.27;;;;;;;;;;5074644;28;20036;-68
2023/08/06 09:54:43;;;;;;;3.33;1.05;;;;;;;;;;5074279;28;20043;-68
2023/08/06 09:57:10;;;;;;;4.53;1.02;;;;;;;;;;5074401;28;20082;-67
2023/08/06 09:59:38;;;;;;;3.78;1.02;;;;;;;;;;5074464;28;20024;-69
2023/08/06 10:02:13;;;;;;;2.85;1.02;;;;;;;;;;5074369;28;20021;-68
2023/08/06 10:04:39;;;;;;;6.93;1.33;;;;;;;;;;5074062;28;20097;-69
2023/08/06 10:07:05;;;;;;;2.42;1.10;;;;;;;;;;5074104;28;20356;-68
2023/08/06 10:09:31;;;;;;;3.35;1.25;;;;;;;;;;5074681;28;20186;-67
2023/08/06 10:11:57;;;;;;;2.47;0.82;;;;;;;;;;5074058;28;20119;-68
2023/08/06 10:14:30;;;;;;;1.67;0.75;;;;;;;;;;5074143;28;20029;-69
2023/08/06 10:16:58;;;;;;;3.50;0.95;;;;;;;;;;5074178;28;20051;-68
2023/08/06 10:19:25;;;;;;;3.05;0.80;;;;;;;;;;5074117;28;20027;-68
2023/08/06 10:22:13;;;;;;;1.85;0.80;;;;;;;;;;5073988;28;20028;-68
2023/08/06 10:24:56;;;;;;;2.80;1.17;;;;;;;;;;5073963;28;20035;-68
2023/08/06 10:27:21;;;;;;;3.95;1.00;;;;;;;;;;5073916;28;20039;-69
2023/08/06 10:29:49;;;;;;;1.70;0.80;;;;;;;;;;5073713;28;20028;-68
2023/08/06 10:32:14;;;;;;;2.83;1.30;;;;;;;;;;5073766;28;20037;-69
2023/08/06 10:35:00;;;;;;;4.03;1.25;;;;;;;;;;5073613;28;20025;-68
2023/08/06 10:37:36;;;;;;;3.97;1.15;;;;;;;;;;5073959;28;20024;-68
2023/08/06 10:40:02;;;;;;;3.25;1.00;;;;;;;;;;5073731;28;20166;-69
2023/08/06 10:42:30;;;;;;;2.95;0.90;;;;;;;;;;5055622;28;20039;-69
2023/08/06 10:45:18;;;;;;;3.50;1.00;;;;;;;;;;5074176;28;20032;-68
2023/08/06 10:47:45;;;;;;;1.77;0.82;;;;;;;;;;5073645;28;20088;-68
2023/08/06 10:50:16;;;;;;;2.63;1.20;;;;;;;;;;5073684;28;20085;-68
2023/08/06 10:52:46;;;;;;;2.70;1.10;;;;;;;;;;5073418;28;20121;-68
2023/08/06 10:55:42;;;;;;;3.00;1.10;;;;;;;;;;5054632;28;20505;-69
2023/08/06 10:58:07;;;;;;;3.08;0.90;;;;;;;;;;5051807;28;20048;-68
2023/08/06 11:00:33;;;;;;;2.72;0.82;;;;;;;;;;5073301;28;20104;-68
2023/08/06 11:02:59;;;;;;;3.13;0.65;;;;;;;;;;5073252;28;20036;-68
2023/08/06 11:05:25;;;;;;;7.93;1.00;;;;;;;;;;5073197;28;20025;-68
2023/08/06 11:07:51;;;;;;;2.97;1.20;;;;;;;;;;5072969;28;20039;-68
2023/08/06 11:10:17;;;;;;;2.85;0.90;;;;;;;;;;5073127;28;20028;-68
2023/08/06 11:12:42;;;;;;;1.45;0.88;;;;;;;;;;5073314;28;20378;-68
2023/08/06 11:15:09;;;;;;;2.35;0.70;;;;;;;;;;5073260;28;20025;-68
2023/08/06 11:17:36;;;;;;;3.92;0.93;;;;;;;;;;5073251;28;20029;-69
2023/08/06 11:20:03;;;;;;;3.38;0.90;;;;;;;;;;5055294;28;20485;-70
2023/08/06 11:22:29;;;;;;;6.78;1.13;;;;;;;;;;5073227;28;20486;-70
2023/08/06 11:24:55;;;;;;;3.05;0.95;;;;;;;;;;5072802;28;20031;-70
2023/08/06 11:27:21;;;;;;;3.38;1.00;;;;;;;;;;5072633;28;20082;-69
2023/08/06 11:29:47;;;;;;;3.55;1.30;;;;;;;;;;5072827;28;20021;-69
2023/08/06 11:32:13;;;;;;;2.65;1.20;;;;;;;;;;5072878;28;20063;-69
2023/08/06 11:34:39;;;;;;;6.38;1.40;;;;;;;;;;5072092;28;20024;-69
2023/08/06 11:37:06;;;;;;;2.45;0.95;;;;;;;;;;5071702;28;20166;-68
2023/08/06 11:39:36;;;;;;;4.20;1.45;;;;;;;;;;5072707;28;20028;-69
2023/08/06 11:42:06;;;;;;;2.78;0.80;;;;;;;;;;5064240;28;20418;-68
2023/08/06 11:44:35;;;;;;;2.08;1.00;;;;;;;;;;5072181;28;20036;-68
2023/08/06 11:47:03;;;;;;;2.25;0.80;;;;;;;;;;5064209;28;20028;-68
2023/08/06 11:49:47;;;;;;;3.50;1.17;;;;;;;;;;5072213;28;20150;-68
2023/08/06 11:52:23;;;;;;;5.05;1.10;;;;;;;;;;5052368;28;20044;-68
2023/08/06 11:55:07;;;;;;;1.55;0.90;;;;;;;;;;5052412;28;20053;-69
2023/08/06 11:57:38;;;;;;;6.30;0.95;;;;;;;;;;5054897;28;20033;-68
2023/08/06 12:00:05;;;;;;;2.00;0.90;;;;;;;;;;5076950;28;20036;-69
2023/08/06 12:02:42;;;;;;;2.80;0.90;;;;;;;;;;5068976;28;20115;-69
2023/08/06 12:05:18;;;;;;;3.38;0.63;;;;;;;;;;5072024;28;20128;-68
2023/08/06 12:07:45;;;;;;;1.77;0.70;;;;;;;;;;5071884;28;20123;-68
2023/08/06 12:10:12;;;;;;;4.80;0.80;;;;;;;;;;5071801;28;20021;-68
2023/08/06 12:12:38;;;;;;;3.42;1.10;;;;;;;;;;5071615;28;20261;-68
2023/08/06 12:15:08;;;;;;;1.58;0.73;;;;;;;;;;5071974;28;20060;-68
2023/08/06 12:17:35;;;;;;;3.22;0.82;;;;;;;;;;5072136;28;20063;-68
2023/08/06 12:20:00;;;;;;;1.48;0.50;;;;;;;;;;5063605;28;20024;-68
2023/08/06 12:22:26;;;;;;;1.48;0.60;;;;;;;;;;5053965;28;20498;-68
2023/08/06 12:24:52;;;;;;;2.80;0.75;;;;;;;;;;5071818;28;20039;-69
2023/08/06 12:27:18;;;;;;;3.38;0.60;;;;;;;;;;5071909;28;20146;-68
2023/08/06 12:29:45;;;;;;;2.13;0.90;;;;;;;;;;5071568;28;20048;-68
2023/08/06 12:32:12;;;;;;;4.07;0.80;;;;;;;;;;5071873;28;20056;-68
2023/08/06 12:34:42;;;;;;;1.42;0.80;;;;;;;;;;5071607;28;20034;-67
2023/08/06 12:37:08;;;;;;;1.58;0.70;;;;;;;;;;5071698;28;20098;-68
2023/08/06 12:39:35;;;;;;;3.42;0.60;;;;;;;;;;5072286;28;20044;-68
2023/08/06 12:42:02;;;;;;;1.48;0.60;;;;;;;;;;5071826;28;20389;-68
2023/08/06 12:44:28;;;;;;;1.48;0.50;;;;;;;;;;5071689;28;20051;-68
2023/08/06 12:46:54;;;;;;;3.70;0.88;;;;;;;;;;5071611;28;20546;-68
2023/08/06 12:49:24;;;;;;;2.03;0.60;;;;;;;;;;5071477;28;20055;-68
2023/08/06 12:51:50;;;;;;;1.38;0.73;;;;;;;;;;5071846;28;20041;-69
2023/08/06 12:54:25;;;;;;;2.70;0.73;;;;;;;;;;5071973;28;20051;-68
2023/08/06 12:56:51;;;;;;;1.30;0.70;;;;;;;;;;5071851;28;20051;-68
2023/08/06 12:59:18;;;;;;;0.68;0.47;;;;;;;;;;5073985;28;20478;-68
2023/08/06 13:01:44;;;;;;;1.38;0.57;;;;;;;;;;5072399;28;20037;-69
2023/08/06 13:04:10;;;;;;;1.65;0.55;;;;;;;;;;5072045;28;20028;-68
2023/08/06 13:06:37;;;;;;;7.30;0.80;;;;;;;;;;5071787;28;20044;-69
2023/08/06 13:09:03;;;;;;;1.15;0.57;;;;;;;;;;5072134;28;20028;-69
2023/08/06 13:11:31;;;;;;;2.92;0.88;;;;;;;;;;5072212;28;20043;-68
2023/08/06 13:14:05;;;;;;;2.17;0.80;;;;;;;;;;5071604;28;20382;-69
2023/08/06 13:16:31;;;;;;;1.38;0.77;;;;;;;;;;5072236;28;20059;-69
2023/08/06 13:18:56;;;;;;;2.08;0.90;;;;;;;;;;5072022;28;20382;-69
2023/08/06 13:21:22;;;;;;;2.28;0.90;;;;;;;;;;5075966;28;20051;-68
2023/08/06 13:23:48;;;;;;;6.13;1.00;;;;;;;;;;5075339;28;20024;-69
2023/08/06 13:26:15;;;;;;;3.38;0.90;;;;;;;;;;5073817;28;20042;-68
2023/08/06 13:28:41;;;;;;;3.78;1.00;;;;;;;;;;5075241;28;20066;-68
2023/08/06 13:31:07;;;;;;;3.33;0.95;;;;;;;;;;5075340;28;20036;-68
2023/08/06 13:33:33;;;;;;;2.67;1.10;;;;;;;;;;5074949;28;20462;-69
2023/08/06 13:35:59;;;;;;;2.45;0.80;;;;;;;;;;5074675;28;20052;-69
2023/08/06 13:38:24;;;;;;;2.53;0.90;;;;;;;;;;5075153;28;20069;-69
2023/08/06 13:40:50;;;;;;;2.58;0.80;;;;;;;;;;5075160;28;20040;-69
2023/08/06 13:43:18;;;;;;;1.75;0.63;;;;;;;;;;5074753;28;20047;-68
2023/08/06 13:45:44;;;;;;;1.77;0.70;;;;;;;;;;5074758;28;20082;-68
2023/08/06 13:48:10;;;;;;;2.85;0.90;;;;;;;;;;5074495;28;20115;-68
2023/08/06 13:50:37;;;;;;;1.73;0.60;;;;;;;;;;5074508;28;20047;-68
2023/08/06 13:53:03;;;;;;;1.80;0.73;;;;;;;;;;5074810;28;20031;-68
2023/08/06 13:55:29;;;;;;;5.10;0.75;;;;;;;;;;5074512;28;20051;-68
2023/08/06 13:57:55;;;;;;;3.13;0.80;;;;;;;;;;5074639;28;20021;-69
2023/08/06 14:00:20;;;;;;;3.65;1.00;;;;;;;;;;5074379;28;20032;-68
2023/08/06 14:02:46;;;;;;;2.45;0.70;;;;;;;;;;5074324;28;20028;-69
2023/08/06 14:05:12;;;;;;;1.25;0.80;;;;;;;;;;5074468;28;20047;-69
2023/08/06 14:07:38;;;;;;;1.67;0.65;;;;;;;;;;5074347;28;20090;-69
2023/08/06 14:10:04;;;;;;;2.15;0.80;;;;;;;;;;5074534;28;20036;-68
2023/08/06 14:12:31;;;;;;;4.70;0.80;;;;;;;;;;5056436;28;20107;-68
2023/08/06 14:14:57;;;;;;;3.17;0.77;;;;;;;;;;5074109;28;20494;-69
2023/08/06 14:17:22;;;;;;;2.17;0.80;;;;;;;;;;5074087;28;20066;-70
2023/08/06 14:19:48;;;;;;;4.95;1.00;;;;;;;;;;5074302;28;20036;-70
2023/08/06 14:22:13;;;;;;;3.13;0.77;;;;;;;;;;5074182;28;20055;-70
2023/08/06 14:24:39;;;;;;;4.32;1.02;;;;;;;;;;5074138;28;20029;-70
2023/08/06 14:27:06;;;;;;;3.10;1.20;;;;;;;;;;5073948;28;20394;-68
2023/08/06 14:29:31;;;;;;;3.97;1.02;;;;;;;;;;5074084;28;20514;-69
2023/08/06 14:31:57;;;;;;;1.98;0.80;;;;;;;;;;5055933;28;20553;-69
2023/08/06 14:34:23;;;;;;;2.30;1.20;;;;;;;;;;5073712;28;20036;-69
2023/08/06 14:36:48;;;;;;;2.55;0.80;;;;;;;;;;5073964;28;20025;-69
2023/08/06 14:39:14;;;;;;;2.65;0.95;;;;;;;;;;5073831;28;20463;-68
2023/08/06 14:41:40;;;;;;;4.13;1.00;;;;;;;;;;5073400;28;20050;-68
2023/08/06 14:44:07;;;;;;;2.40;0.98;;;;;;;;;;5073166;28;20042;-67